Time;durP1;ratioP1;P1;durP2;ratioP2;P2;SDS_P1;SDS_P2;PMS_P1;PMS_P2;Temp;Humidity;BMP_temperature;BMP_pressure;BME280_temperature;BME280_humidity;BME280_pressure;Samples;Min_cycle;Max_cycle;Signal;HPM_P1;HPM_P2
2021/12/17 00:01:08;;;;;;;218.35;33.08;;;8.50;99.90;;;;;;5011361;28;182030;-72
2021/12/17 00:03:47;;;;;;;520.67;38.95;;;8.60;99.90;;;;;;5026541;28;20052;-72
2021/12/17 00:08:55;;;;;;;241.97;33.97;;;8.60;99.90;;;;;;5021367;28;279901;-73
2021/12/17 00:11:22;;;;;;;255.30;33.22;;;8.50;99.90;;;;;;5016851;28;20056;-72
2021/12/17 00:13:49;;;;;;;434.37;37.30;;;8.50;99.90;;;;;;5006436;28;259179;-72
2021/12/17 00:16:22;;;;;;;263.55;33.30;;;8.50;99.90;;;;;;5034255;23;20056;-88
2021/12/17 00:19:22;;;;;;;283.92;35.15;;;8.50;99.90;;;;;;5021480;28;20041;-89
2021/12/17 00:49:27;;;;;;;139.85;26.73;;;8.50;99.90;;;;;;5018367;28;59034;-88
2021/12/17 00:51:57;;;;;;;119.57;26.35;;;8.50;99.90;;;;;;5007430;28;20057;-88
2021/12/17 00:54:38;;;;;;;127.05;26.27;;;8.50;99.90;;;;;;5022469;28;96048;-91
2021/12/17 01:00:12;;;;;;;79.85;22.08;;;8.50;99.90;;;;;;4907535;22;2961434;-87
2021/12/17 01:03:30;;;;;;;79.85;20.15;;;8.50;99.90;;;;;;5015164;28;20046;-84
2021/12/17 01:06:01;;;;;;;72.75;20.45;;;8.50;99.90;;;;;;4615624;28;9019559;-84
2021/12/17 01:09:18;;;;;;;64.10;18.70;;;8.50;99.90;;;;;;4928528;29;20050;-87
2021/12/17 01:12:15;;;;;;;60.13;17.50;;;8.50;99.90;;;;;;4930505;29;20048;-86
2021/12/17 01:14:54;;;;;;;57.20;16.38;;;8.50;99.90;;;;;;4897140;29;32474;-86
2021/12/17 01:21:52;;;;;;;;;;;;;;;;;;;;;
2021/12/17 01:24:41;;;;;;;57.30;17.10;;;8.50;99.90;;;;;;4564031;29;10003646;-84
2021/12/17 01:42:57;;;;;;;67.55;17.35;;;8.40;99.90;;;;;;4959634;28;20053;-83
2021/12/17 01:45:39;;;;;;;60.88;16.95;;;8.50;99.90;;;;;;4969442;28;258631;-85
2021/12/17 01:48:54;;;;;;;64.18;15.93;;;8.50;99.90;;;;;;5016868;28;20054;-85
2021/12/17 02:03:47;;;;;;;57.33;14.88;;;8.40;99.90;;;;;;4942076;28;20404;-84
2021/12/17 02:06:56;;;;;;;53.92;15.65;;;8.40;99.90;;;;;;4911868;28;69719;-84
2021/12/17 02:20:21;;;;;;;48.38;12.88;;;8.40;99.90;;;;;;4894075;29;20063;-85
2021/12/17 02:33:32;;;;;;;43.53;13.10;;;8.40;99.90;;;;;;4838264;29;20068;-84
2021/12/17 02:46:40;;;;;;;39.55;12.13;;;8.40;99.90;;;;;;4855161;29;20053;-84
2021/12/17 02:49:36;;;;;;;35.20;11.57;;;8.40;99.90;;;;;;4507062;29;10003738;-85
2021/12/17 02:53:26;;;;;;;42.38;13.07;;;8.40;99.90;;;;;;4848861;29;20057;-84
2021/12/17 02:56:46;;;;;;;48.95;13.02;;;8.40;99.90;;;;;;4818762;29;64030;-84
2021/12/17 02:59:21;;;;;;;48.13;13.80;;;8.50;99.90;;;;;;4472218;29;10003349;-85
2021/12/17 03:01:51;;;;;;;35.42;12.93;;;8.50;99.90;;;;;;4827086;29;20059;-86
2021/12/17 03:05:27;;;;;;;45.60;12.93;;;8.40;99.90;;;;;;4809968;29;248128;-84
2021/12/17 03:08:14;;;;;;;;;;;;;;;;;;;;;
2021/12/17 03:11:14;;;;;;;48.15;13.48;;;8.50;99.90;;;;;;4495033;29;8925073;-86
2021/12/17 03:14:17;;;;;;;45.28;13.23;;;8.40;99.90;;;;;;4762599;29;225465;-85
2021/12/17 03:26:48;;;;;;;47.78;13.23;;;8.40;99.90;;;;;;4490383;29;10003781;-87
2021/12/17 03:30:00;;;;;;;47.30;13.07;;;8.50;99.90;;;;;;4783622;29;272892;-86
2021/12/17 03:33:48;;;;;;;37.70;12.30;;;8.50;99.90;;;;;;4839325;29;20058;-87
2021/12/17 03:39:44;;;;;;;42.07;13.63;;;8.50;99.90;;;;;;4852160;29;123132;-82
2021/12/17 03:42:47;;;;;;;46.13;13.98;;;8.50;99.90;;;;;;4868453;29;20072;-85
2021/12/17 03:45:29;;;;;;;40.28;13.27;;;8.50;99.90;;;;;;4858283;29;20053;-85
2021/12/17 03:48:24;;;;;;;57.20;16.20;;;8.50;99.90;;;;;;4868200;29;20631;-85
2021/12/17 03:51:14;;;;;;;51.15;15.65;;;8.50;99.90;;;;;;4573723;29;9004731;-84
2021/12/17 03:54:24;;;;;;;54.55;15.68;;;8.50;99.90;;;;;;4871905;29;20481;-84
2021/12/17 04:00:14;;;;;;;49.13;15.98;;;8.50;99.90;;;;;;4561610;29;8934703;-84
2021/12/17 04:03:03;;;;;;;57.20;16.10;;;8.50;99.90;;;;;;4873801;29;20083;-86
2021/12/17 04:08:55;;;;;;;52.72;15.95;;;8.50;99.90;;;;;;4848517;29;20053;-85
2021/12/17 04:11:46;;;;;;;;;;;;;;;;;;;;;
2021/12/17 04:15:03;;;;;;;54.75;16.13;;;8.50;99.90;;;;;;4873979;29;222386;-86
2021/12/17 04:17:52;;;;;;;63.45;16.88;;;8.50;99.90;;;;;;4895644;29;20052;-84
2021/12/17 04:20:52;;;;;;;57.08;15.55;;;8.50;99.90;;;;;;4841893;29;278510;-86
2021/12/17 04:23:27;;;;;;;60.95;16.20;;;8.50;99.90;;;;;;4888790;29;20055;-87
2021/12/17 04:26:09;;;;;;;59.22;15.65;;;8.50;99.90;;;;;;4850773;29;125978;-84
2021/12/17 04:29:02;;;;;;;39.60;13.63;;;8.50;99.90;;;;;;4800919;29;241984;-84
2021/12/17 04:31:33;;;;;;;45.33;15.23;;;8.50;99.90;;;;;;4840393;29;20058;-84
2021/12/17 04:37:22;;;;;;;33.65;13.55;;;8.40;99.90;;;;;;4930028;29;20549;-86
2021/12/17 04:40:00;;;;;;;35.97;12.98;;;8.40;99.90;;;;;;4908508;29;176472;-87
2021/12/17 04:58:16;;;;;;;91.32;17.35;;;8.00;99.90;;;;;;4873063;29;20055;-85
2021/12/17 05:01:11;;;;;;;;;;;;;;;;;;;;;
2021/12/17 05:04:26;;;;;;;;;;;;;;;;;;;;;
2021/12/17 05:20:27;;;;;;;;;;;;;;;;;;;;;
2021/12/17 05:23:43;;;;;;;51.05;14.93;;;8.10;99.90;;;;;;4881109;29;20053;-85
2021/12/17 05:27:04;;;;;;;;;;;;;;;;;;;;;
2021/12/17 05:30:47;;;;;;;;;;;;;;;;;;;;;
2021/12/17 05:33:51;;;;;;;38.10;12.23;;;8.10;99.90;;;;;;4882517;29;20495;-85
2021/12/17 05:36:48;;;;;;;38.72;14.10;;;8.20;99.90;;;;;;4684612;29;5386545;-85
2021/12/17 05:40:33;;;;;;;39.03;13.43;;;8.20;99.90;;;;;;4512997;29;10003635;-84
2021/12/17 05:54:39;;;;;;;;;;;;;;;;;;;;;
2021/12/17 05:57:55;;;;;;;45.28;15.15;;;8.20;99.90;;;;;;4802815;29;20052;-86
2021/12/17 06:00:34;;;;;;;50.83;15.77;;;8.10;99.90;;;;;;5069940;27;1256146;-69
2021/12/17 06:03:02;;;;;;;52.60;15.93;;;8.20;99.90;;;;;;5108537;27;20071;-69
2021/12/17 06:05:29;;;;;;;53.88;16.00;;;8.20;99.90;;;;;;5060161;27;251921;-70
2021/12/17 06:07:55;;;;;;;51.35;15.82;;;8.20;99.90;;;;;;5082341;28;20447;-69
2021/12/17 06:10:22;;;;;;;57.15;16.02;;;8.20;99.90;;;;;;5068850;28;67106;-70
2021/12/17 06:15:18;;;;;;;53.17;15.45;;;8.10;99.90;;;;;;5034639;28;250802;-73
2021/12/17 06:17:45;;;;;;;53.58;15.52;;;8.10;99.90;;;;;;5058613;28;20068;-73
2021/12/17 06:20:13;;;;;;;61.83;15.45;;;8.10;99.90;;;;;;5037635;28;261945;-74
2021/12/17 06:22:40;;;;;;;63.08;16.35;;;8.10;99.90;;;;;;5055412;28;20187;-72
2021/12/17 06:25:08;;;;;;;94.07;16.95;;;8.10;99.90;;;;;;5032515;28;271284;-73
2021/12/17 06:27:35;;;;;;;79.05;16.42;;;8.10;99.90;;;;;;5022694;28;20068;-74
2021/12/17 06:30:03;;;;;;;87.90;17.27;;;8.10;99.90;;;;;;5005209;28;136749;-73
2021/12/17 06:32:29;;;;;;;85.22;16.77;;;8.10;99.90;;;;;;5026951;28;20056;-73
2021/12/17 06:34:55;;;;;;;65.95;15.88;;;8.00;99.90;;;;;;5022662;28;152094;-73
2021/12/17 06:37:21;;;;;;;60.88;15.57;;;8.00;99.90;;;;;;5048636;28;20676;-74
2021/12/17 06:39:49;;;;;;;50.85;16.30;;;8.00;99.90;;;;;;5056768;28;79319;-73
2021/12/17 06:42:17;;;;;;;69.95;17.15;;;8.00;99.90;;;;;;5053088;28;20045;-73
2021/12/17 06:44:47;;;;;;;62.88;16.38;;;8.00;99.90;;;;;;5050765;28;249161;-74
2021/12/17 06:47:27;;;;;;;49.28;15.30;;;8.00;99.90;;;;;;5068958;28;20401;-72
2021/12/17 07:00:36;;;;;;;52.58;14.88;;;8.00;99.90;;;;;;5027778;28;270902;-73
2021/12/17 07:33:02;;;;;;;47.22;14.50;;;8.00;99.90;;;;;;4896127;29;20059;-73
2021/12/17 07:35:41;;;;;;;43.60;13.73;;;8.00;99.90;;;;;;4884202;29;64713;-73
2021/12/17 07:40:54;;;;;;;41.67;13.32;;;8.00;99.90;;;;;;4881233;29;83346;-73
2021/12/17 07:43:52;;;;;;;46.92;15.00;;;8.00;99.90;;;;;;4918212;29;20576;-73
2021/12/17 07:46:12;;;;;;;43.75;13.95;;;8.00;99.90;;;;;;4923766;28;20059;-73
2021/12/17 07:48:39;;;;;;;45.75;14.52;;;8.00;99.90;;;;;;4949077;28;20054;-73
2021/12/17 07:51:09;;;;;;;47.92;13.57;;;8.00;99.90;;;;;;4936196;28;255923;-74
2021/12/17 07:53:35;;;;;;;40.20;14.43;;;8.00;99.90;;;;;;4990388;28;20053;-73
2021/12/17 07:56:04;;;;;;;36.63;13.50;;;8.00;99.90;;;;;;5009479;28;237009;-73
2021/12/17 07:58:31;;;;;;;40.65;13.70;;;8.00;99.90;;;;;;5029213;28;20118;-73
2021/12/17 08:00:58;;;;;;;38.88;14.52;;;8.10;99.90;;;;;;5009767;28;255442;-74
2021/12/17 08:03:25;;;;;;;37.90;13.98;;;8.10;99.90;;;;;;5028437;28;20054;-74
2021/12/17 08:05:52;;;;;;;36.75;14.00;;;8.10;99.90;;;;;;4995617;28;248547;-74
2021/12/17 08:08:19;;;;;;;35.00;13.45;;;8.10;99.90;;;;;;5026026;28;20053;-74
2021/12/17 08:10:48;;;;;;;37.95;13.40;;;8.10;99.90;;;;;;5018508;28;84396;-73
2021/12/17 08:13:23;;;;;;;35.42;13.98;;;8.10;99.90;;;;;;5009936;28;20054;-74
2021/12/17 08:16:05;;;;;;;41.97;14.02;;;8.10;99.90;;;;;;5013211;28;35356;-74
2021/12/17 08:19:06;;;;;;;43.28;15.77;;;8.10;99.90;;;;;;5011984;28;20061;-73
2021/12/17 08:31:48;;;;;;;39.67;15.15;;;8.20;99.90;;;;;;5022914;28;20053;-74
2021/12/17 08:34:14;;;;;;;38.13;15.18;;;8.20;99.90;;;;;;5017981;28;116430;-73
2021/12/17 08:36:40;;;;;;;42.20;15.18;;;8.20;99.90;;;;;;5029668;28;20049;-74
2021/12/17 08:39:06;;;;;;;42.42;15.02;;;8.20;99.90;;;;;;5010031;28;151886;-74
2021/12/17 08:41:33;;;;;;;39.42;14.52;;;8.20;99.90;;;;;;5011063;28;20419;-74
2021/12/17 08:43:59;;;;;;;44.43;15.13;;;8.30;99.90;;;;;;4996080;28;275194;-73
2021/12/17 08:46:25;;;;;;;40.53;15.10;;;8.30;99.90;;;;;;5026626;28;20053;-73
2021/12/17 08:48:52;;;;;;;39.58;14.75;;;8.30;99.90;;;;;;4994840;28;255970;-73
2021/12/17 08:51:18;;;;;;;41.55;15.80;;;8.30;99.90;;;;;;5021414;28;20517;-73
2021/12/17 08:53:44;;;;;;;39.47;15.05;;;8.30;99.90;;;;;;4990634;28;251307;-73
2021/12/17 08:56:14;;;;;;;48.70;15.80;;;8.30;99.90;;;;;;5011543;28;20049;-74
2021/12/17 08:58:41;;;;;;;42.47;15.05;;;8.30;99.90;;;;;;4998750;28;254710;-72
2021/12/17 09:01:07;;;;;;;41.95;15.65;;;8.30;99.90;;;;;;5025743;28;20069;-74
2021/12/17 09:03:33;;;;;;;47.80;15.57;;;8.40;99.90;;;;;;5012900;28;20072;-74
2021/12/17 09:06:00;;;;;;;45.65;15.65;;;8.40;99.90;;;;;;4978392;28;230897;-74
2021/12/17 09:08:26;;;;;;;46.53;15.40;;;8.40;99.90;;;;;;5020824;28;20061;-74
2021/12/17 09:10:55;;;;;;;47.60;15.80;;;8.40;99.90;;;;;;4985654;28;20053;-74
2021/12/17 09:13:26;;;;;;;43.08;15.25;;;8.40;99.90;;;;;;5010691;28;20053;-74
2021/12/17 09:15:57;;;;;;;40.83;14.68;;;8.50;99.90;;;;;;5000944;28;92147;-74
2021/12/17 09:18:25;;;;;;;38.70;14.38;;;8.40;99.90;;;;;;5010945;28;20069;-74
2021/12/17 09:20:51;;;;;;;40.03;15.45;;;8.40;99.90;;;;;;4996601;28;194428;-74
2021/12/17 09:23:18;;;;;;;41.33;15.38;;;8.50;99.90;;;;;;5010232;28;20148;-74
2021/12/17 09:25:44;;;;;;;36.88;15.50;;;8.50;99.90;;;;;;5002445;28;103907;-74
2021/12/17 09:28:11;;;;;;;39.97;15.23;;;8.50;99.90;;;;;;5012875;28;20080;-74
2021/12/17 09:30:37;;;;;;;38.85;15.98;;;8.50;99.90;;;;;;5019006;28;141319;-75
2021/12/17 09:33:03;;;;;;;34.60;14.73;;;8.50;99.90;;;;;;5011366;28;20069;-74
2021/12/17 09:35:29;;;;;;;38.20;15.40;;;8.50;99.90;;;;;;5007325;28;271340;-74
2021/12/17 09:37:56;;;;;;;34.58;15.23;;;8.60;99.90;;;;;;5010284;28;20049;-74
2021/12/17 09:40:22;;;;;;;37.38;15.20;;;8.60;99.90;;;;;;5005156;28;263790;-73
2021/12/17 09:42:48;;;;;;;39.00;15.30;;;8.60;99.90;;;;;;5013153;28;20282;-73
2021/12/17 09:45:17;;;;;;;39.63;16.38;;;8.70;99.90;;;;;;5008766;28;254721;-74
2021/12/17 09:47:44;;;;;;;38.85;15.43;;;8.70;99.90;;;;;;5016246;28;20049;-74
2021/12/17 09:50:12;;;;;;;37.72;15.65;;;8.70;99.90;;;;;;5008204;28;256727;-74
2021/12/17 09:52:40;;;;;;;33.67;14.88;;;8.70;99.90;;;;;;5027654;28;20068;-74
2021/12/17 09:55:09;;;;;;;36.47;15.52;;;8.70;99.90;;;;;;5005708;28;20049;-74
2021/12/17 09:57:36;;;;;;;34.08;15.20;;;8.70;99.90;;;;;;5024805;28;20052;-73
2021/12/17 10:00:16;;;;;;;36.70;15.55;;;8.70;99.90;;;;;;5019306;28;20041;-73
2021/12/17 10:02:44;;;;;;;34.38;15.55;;;8.80;99.90;;;;;;5010638;28;20502;-73
2021/12/17 10:05:14;;;;;;;34.17;14.50;;;8.80;99.90;;;;;;4977212;28;137993;-73
2021/12/17 10:07:44;;;;;;;34.35;15.00;;;8.80;99.90;;;;;;5020840;28;20045;-74
2021/12/17 10:10:12;;;;;;;32.80;14.13;;;8.80;99.90;;;;;;5015370;28;20045;-74
2021/12/17 10:12:40;;;;;;;32.40;14.15;;;8.80;99.90;;;;;;4999187;28;20054;-73
2021/12/17 10:15:20;;;;;;;30.15;14.25;;;8.90;99.90;;;;;;5003999;28;266637;-74
2021/12/17 10:18:03;;;;;;;30.98;14.35;;;8.90;99.90;;;;;;4996776;28;20160;-74
2021/12/17 10:20:32;;;;;;;29.33;13.35;;;8.90;99.90;;;;;;5006308;28;269204;-74
2021/12/17 10:23:04;;;;;;;26.48;13.80;;;8.90;99.90;;;;;;4993919;28;20487;-74
2021/12/17 10:25:32;;;;;;;30.10;14.32;;;9.00;99.90;;;;;;4982921;28;26900;-74
2021/12/17 10:28:03;;;;;;;25.23;13.63;;;9.00;99.90;;;;;;4995421;28;20046;-74
2021/12/17 10:30:32;;;;;;;28.67;12.65;;;9.00;99.90;;;;;;5004880;28;280919;-74
2021/12/17 10:33:01;;;;;;;24.63;12.40;;;9.00;99.90;;;;;;5010322;28;20430;-74
2021/12/17 10:35:33;;;;;;;28.42;13.80;;;9.10;99.90;;;;;;4994967;28;96522;-74
2021/12/17 10:38:08;;;;;;;26.90;12.77;;;9.10;99.90;;;;;;4998348;28;20433;-74
2021/12/17 10:40:39;;;;;;;26.10;12.50;;;9.10;99.90;;;;;;5011278;28;153306;-72
2021/12/17 10:43:20;;;;;;;25.95;11.75;;;9.20;99.90;;;;;;5005486;28;20057;-74
2021/12/17 10:46:05;;;;;;;26.67;12.45;;;9.20;99.90;;;;;;5008207;28;262036;-72
2021/12/17 10:51:18;;;;;;;28.08;11.98;;;9.30;99.90;;;;;;4984651;28;20050;-72
2021/12/17 10:53:55;;;;;;;27.77;12.00;;;9.30;99.90;;;;;;4995633;28;273983;-72
2021/12/17 10:56:27;;;;;;;22.95;11.57;;;9.30;99.90;;;;;;5018634;28;20049;-71
2021/12/17 10:59:18;;;;;;;28.57;12.87;;;9.20;99.90;;;;;;4998690;28;270140;-72
2021/12/17 11:01:46;;;;;;;23.98;11.50;;;9.20;99.90;;;;;;5034479;28;20049;-72
2021/12/17 11:04:17;;;;;;;23.17;11.63;;;9.20;99.90;;;;;;5001139;28;270467;-72
2021/12/17 11:06:48;;;;;;;27.00;11.50;;;9.30;99.90;;;;;;5020142;28;20419;-73
2021/12/17 11:09:53;;;;;;;27.53;12.00;;;9.20;99.90;;;;;;5003677;28;258743;-72
2021/12/17 11:12:41;;;;;;;25.48;11.82;;;9.30;99.90;;;;;;5004435;28;20049;-73
2021/12/17 11:15:21;;;;;;;27.90;12.27;;;9.30;99.90;;;;;;5008749;28;274723;-72
2021/12/17 11:18:03;;;;;;;28.00;11.75;;;9.30;99.90;;;;;;5017827;28;20057;-72
2021/12/17 11:20:36;;;;;;;25.83;11.82;;;9.30;99.90;;;;;;5005051;28;20161;-72
2021/12/17 11:23:07;;;;;;;26.40;11.63;;;9.30;99.90;;;;;;4998489;28;20050;-72
2021/12/17 11:25:36;;;;;;;27.42;12.05;;;9.30;99.90;;;;;;5020227;28;39817;-72
2021/12/17 11:28:05;;;;;;;32.33;12.38;;;9.30;99.90;;;;;;5013015;28;20058;-72
2021/12/17 11:30:34;;;;;;;26.48;11.60;;;9.30;99.90;;;;;;5012238;28;256102;-72
2021/12/17 11:33:04;;;;;;;25.45;12.00;;;9.30;99.90;;;;;;4996591;28;21381;-72
2021/12/17 11:35:34;;;;;;;27.83;12.18;;;9.40;99.90;;;;;;5001966;28;34754;-72
2021/12/17 11:38:14;;;;;;;23.80;11.63;;;9.50;99.90;;;;;;4996801;28;20057;-72
2021/12/17 11:40:48;;;;;;;26.20;11.65;;;9.50;99.90;;;;;;5009051;28;260995;-72
2021/12/17 11:43:53;;;;;;;23.58;12.13;;;9.50;99.90;;;;;;5011763;28;20529;-73
2021/12/17 11:46:25;;;;;;;24.65;11.43;;;9.50;99.90;;;;;;5008467;28;20518;-72
2021/12/17 11:48:57;;;;;;;24.55;11.15;;;9.60;99.90;;;;;;4995580;28;253552;-72
2021/12/17 11:51:26;;;;;;;25.80;11.32;;;9.60;99.90;;;;;;5024501;28;20058;-72
2021/12/17 11:53:52;;;;;;;26.20;11.43;;;9.60;99.90;;;;;;4997175;28;268161;-72
2021/12/17 11:56:52;;;;;;;25.70;11.30;;;9.70;99.90;;;;;;4994228;28;20053;-72
2021/12/17 11:59:27;;;;;;;27.70;10.15;;;9.70;99.90;;;;;;5000145;28;150431;-72
2021/12/17 12:02:11;;;;;;;22.20;9.90;;;9.70;99.90;;;;;;5024336;28;20512;-72
2021/12/17 12:04:40;;;;;;;19.33;9.02;;;9.70;99.90;;;;;;4993179;28;160004;-72
2021/12/17 12:07:19;;;;;;;20.50;9.25;;;9.70;99.90;;;;;;5019970;28;20049;-72
2021/12/17 12:09:57;;;;;;;21.88;9.32;;;9.70;99.90;;;;;;5003308;28;268309;-72
2021/12/17 12:12:40;;;;;;;18.33;8.05;;;9.70;99.90;;;;;;5019120;28;20065;-72
2021/12/17 12:15:27;;;;;;;22.08;8.32;;;9.70;99.90;;;;;;5017627;22;183350;-68
2021/12/17 12:18:08;;;;;;;18.20;8.00;;;9.70;99.90;;;;;;4979806;28;20049;-70
2021/12/17 12:20:47;;;;;;;18.90;8.27;;;9.70;99.90;;;;;;4980454;28;161128;-68
2021/12/17 12:23:32;;;;;;;17.00;7.95;;;9.70;99.90;;;;;;4998523;28;20406;-68
2021/12/17 12:26:01;;;;;;;16.73;7.38;;;9.70;99.90;;;;;;4978130;28;315406;-68
2021/12/17 12:28:48;;;;;;;16.90;7.35;;;9.70;99.90;;;;;;5003291;28;20076;-68
2021/12/17 12:31:14;;;;;;;12.80;6.80;;;9.70;99.90;;;;;;4975542;28;20510;-69
2021/12/17 12:34:02;;;;;;;15.90;7.25;;;9.70;99.90;;;;;;4983928;28;20133;-68
2021/12/17 12:36:43;;;;;;;15.02;6.93;;;9.70;99.90;;;;;;4969581;28;20065;-69
2021/12/17 12:39:16;;;;;;;15.30;6.70;;;9.70;99.90;;;;;;4970808;28;177542;-68
2021/12/17 12:41:57;;;;;;;14.98;6.22;;;9.70;99.90;;;;;;5011563;28;20450;-70
2021/12/17 12:44:41;;;;;;;12.90;5.87;;;9.70;99.90;;;;;;4987368;28;137063;-68
2021/12/17 12:47:13;;;;;;;13.20;5.63;;;9.70;99.90;;;;;;5008222;28;20046;-69
2021/12/17 12:49:44;;;;;;;;;;;9.70;99.90;;;;;;4990341;28;279914;-69
2021/12/17 12:52:34;;;;;;;13.13;5.68;;;9.70;99.90;;;;;;5009752;28;20456;-69
2021/12/17 12:55:00;;;;;;;13.73;6.30;;;9.70;99.90;;;;;;4987252;28;255222;-69
2021/12/17 12:57:27;;;;;;;12.77;5.85;;;9.70;99.90;;;;;;5003283;28;20081;-69
2021/12/17 12:59:56;;;;;;;11.85;5.53;;;9.70;99.90;;;;;;4898066;28;2996502;-69
2021/12/17 13:02:26;;;;;;;12.10;5.65;;;9.70;99.90;;;;;;5009046;28;20053;-69
2021/12/17 13:04:57;;;;;;;11.18;5.70;;;9.70;99.90;;;;;;4974269;28;251418;-68
2021/12/17 13:07:32;;;;;;;10.63;4.97;;;9.70;99.90;;;;;;5001417;28;20060;-69
2021/12/17 13:10:15;;;;;;;10.57;5.28;;;9.70;99.90;;;;;;4994421;28;284115;-69
2021/12/17 13:13:00;;;;;;;10.25;5.18;;;9.80;99.90;;;;;;5006704;28;20045;-70
2021/12/17 13:23:30;;;;;;;11.02;4.80;;;9.60;99.90;;;;;;5004393;28;20053;-70
2021/12/17 13:26:26;;;;;;;11.38;5.15;;;9.60;99.90;;;;;;4996059;28;313652;-70
2021/12/17 13:29:10;;;;;;;12.17;5.50;;;9.70;99.90;;;;;;4982163;28;280418;-68
2021/12/17 13:31:36;;;;;;;11.95;5.20;;;9.60;99.90;;;;;;5013557;28;20042;-69
2021/12/17 13:34:09;;;;;;;14.82;5.68;;;9.60;99.90;;;;;;4982093;28;254363;-68
2021/12/17 13:36:46;;;;;;;11.98;5.85;;;9.60;99.90;;;;;;4988483;28;20510;-70
2021/12/17 13:39:12;;;;;;;11.13;6.05;;;9.60;99.90;;;;;;4980148;28;260609;-70
2021/12/17 13:41:45;;;;;;;12.55;6.00;;;9.60;99.90;;;;;;4989104;28;20046;-68
2021/12/17 13:44:35;;;;;;;11.77;6.00;;;9.60;99.90;;;;;;4986945;28;265864;-69
2021/12/17 13:47:08;;;;;;;12.27;6.00;;;9.60;99.90;;;;;;5009546;28;20046;-68
2021/12/17 13:49:35;;;;;;;14.40;5.93;;;9.60;99.90;;;;;;4989330;28;256658;-69
2021/12/17 13:52:03;;;;;;;12.20;6.05;;;9.60;99.90;;;;;;5008443;28;20058;-69
2021/12/17 13:54:32;;;;;;;13.98;6.63;;;9.50;99.90;;;;;;4989108;28;260490;-69
2021/12/17 13:57:00;;;;;;;14.43;6.88;;;9.50;99.90;;;;;;5008620;28;20108;-69
2021/12/17 13:59:31;;;;;;;13.18;6.65;;;9.60;99.90;;;;;;4991969;28;20588;-69
2021/12/17 14:01:58;;;;;;;12.98;6.38;;;9.50;99.90;;;;;;5010467;28;20065;-69
2021/12/17 14:04:27;;;;;;;14.32;7.07;;;9.50;99.90;;;;;;4971991;28;256458;-69
2021/12/17 14:06:56;;;;;;;12.63;6.60;;;9.50;99.90;;;;;;4994787;28;20057;-68
2021/12/17 14:09:23;;;;;;;12.00;6.90;;;9.50;99.90;;;;;;4985199;28;277518;-68
2021/12/17 14:11:49;;;;;;;13.27;6.60;;;9.50;99.90;;;;;;4984308;28;20410;-69
2021/12/17 14:14:27;;;;;;;12.98;6.95;;;9.50;99.90;;;;;;4989731;28;251507;-69
2021/12/17 14:16:59;;;;;;;12.27;7.07;;;9.50;99.90;;;;;;5010851;28;20058;-70
2021/12/17 14:20:00;;;;;;;11.98;6.47;;;9.50;99.90;;;;;;4986020;28;142353;-70
2021/12/17 14:22:33;;;;;;;12.52;6.43;;;9.50;99.90;;;;;;4926430;29;20210;-69
2021/12/17 14:24:59;;;;;;;11.55;6.40;;;9.40;99.90;;;;;;4913219;29;128725;-69
2021/12/17 14:27:47;;;;;;;12.02;5.97;;;9.40;99.90;;;;;;4926092;29;20058;-70
2021/12/17 14:30:14;;;;;;;11.65;5.50;;;9.40;99.90;;;;;;4910579;29;85969;-70
2021/12/17 14:32:46;;;;;;;10.98;5.35;;;9.40;99.90;;;;;;4925825;29;20055;-69
2021/12/17 14:35:13;;;;;;;10.30;5.53;;;9.40;99.90;;;;;;4883697;29;175690;-70
2021/12/17 14:37:54;;;;;;;11.57;5.80;;;9.40;99.90;;;;;;4909658;29;20075;-69
2021/12/17 14:40:29;;;;;;;12.10;6.28;;;9.40;99.90;;;;;;4908703;29;108356;-69
2021/12/17 14:42:57;;;;;;;12.43;6.05;;;9.40;99.90;;;;;;4926232;29;20393;-69
2021/12/17 14:45:41;;;;;;;12.48;5.63;;;9.40;99.90;;;;;;4898171;29;253991;-68
2021/12/17 14:48:29;;;;;;;10.60;5.53;;;9.40;99.90;;;;;;4928386;29;20474;-69
2021/12/17 15:04:39;;;;;;;11.93;5.57;;;9.30;99.90;;;;;;4916107;28;198928;-68
2021/12/17 15:07:05;;;;;;;12.23;5.88;;;9.40;99.90;;;;;;4946784;28;20055;-69
2021/12/17 15:09:34;;;;;;;13.80;6.15;;;9.40;99.90;;;;;;4943804;28;23504;-69
2021/12/17 15:12:11;;;;;;;13.25;5.88;;;9.40;99.90;;;;;;4955036;28;20055;-69
2021/12/17 15:14:38;;;;;;;11.30;6.20;;;9.40;99.90;;;;;;4939131;28;158672;-69
2021/12/17 15:17:04;;;;;;;11.10;6.10;;;9.40;99.90;;;;;;4956264;28;20059;-69
2021/12/17 15:19:31;;;;;;;11.90;6.07;;;9.40;99.90;;;;;;4938970;28;55969;-70
2021/12/17 15:21:57;;;;;;;11.60;6.28;;;9.40;99.90;;;;;;4955554;28;20051;-68
2021/12/17 15:24:23;;;;;;;11.65;6.00;;;9.40;99.90;;;;;;4940535;28;93613;-69
2021/12/17 15:26:49;;;;;;;10.50;6.13;;;9.40;99.90;;;;;;4957207;28;20043;-71
2021/12/17 15:29:15;;;;;;;12.50;5.93;;;9.40;99.90;;;;;;4932898;28;117968;-68
2021/12/17 15:31:41;;;;;;;11.95;6.07;;;9.40;99.90;;;;;;4947842;28;20051;-69
2021/12/17 15:34:07;;;;;;;12.98;6.22;;;9.40;99.90;;;;;;4939640;28;20073;-70
2021/12/17 15:36:33;;;;;;;11.98;6.30;;;9.40;99.90;;;;;;4958191;28;20650;-69
2021/12/17 15:38:59;;;;;;;12.43;6.10;;;9.40;99.90;;;;;;4950301;28;262925;-69
2021/12/17 15:41:25;;;;;;;13.95;6.05;;;9.40;99.90;;;;;;5016582;28;20422;-69
2021/12/17 15:43:52;;;;;;;11.50;5.53;;;9.40;99.90;;;;;;4987267;28;262887;-69
2021/12/17 15:46:18;;;;;;;10.57;5.70;;;9.40;99.90;;;;;;5017665;28;20050;-69
2021/12/17 15:48:45;;;;;;;15.40;6.72;;;9.40;99.90;;;;;;4986169;28;252797;-69
2021/12/17 15:51:11;;;;;;;13.10;7.30;;;9.40;99.90;;;;;;5018093;28;20403;-69
2021/12/17 15:53:37;;;;;;;12.60;6.80;;;9.40;99.90;;;;;;5005133;28;20057;-69
2021/12/17 15:56:03;;;;;;;16.25;7.47;;;9.40;99.90;;;;;;5003021;28;162190;-69
2021/12/17 15:58:30;;;;;;;14.55;7.43;;;9.30;99.90;;;;;;5002873;28;20058;-69
2021/12/17 16:00:56;;;;;;;16.83;7.68;;;9.30;99.90;;;;;;4998678;28;254443;-69
2021/12/17 16:03:30;;;;;;;15.68;8.00;;;9.30;99.90;;;;;;5003236;28;20045;-69
2021/12/17 16:05:57;;;;;;;15.48;7.80;;;9.30;99.90;;;;;;4984171;28;261106;-69
2021/12/17 16:08:23;;;;;;;14.57;8.02;;;9.30;99.90;;;;;;5001228;28;20057;-68
2021/12/17 16:21:50;;;;;;;15.15;8.52;;;9.30;99.90;;;;;;4951882;28;20680;-70
2021/12/17 16:24:16;;;;;;;15.32;8.63;;;9.30;99.90;;;;;;4942386;28;51512;-68
2021/12/17 16:26:42;;;;;;;16.85;7.47;;;9.30;99.90;;;;;;4937573;28;20073;-69
2021/12/17 16:29:13;;;;;;;16.00;7.35;;;9.30;99.90;;;;;;4935521;28;115019;-68
2021/12/17 16:31:39;;;;;;;15.30;8.75;;;9.30;99.90;;;;;;4951968;28;20790;-69
2021/12/17 16:34:05;;;;;;;16.35;8.52;;;9.30;99.90;;;;;;4939486;28;163588;-70
2021/12/17 16:36:33;;;;;;;15.90;8.48;;;9.30;99.90;;;;;;4952365;28;20439;-69
2021/12/17 16:38:59;;;;;;;15.93;8.40;;;9.30;99.90;;;;;;4947533;28;47141;-69
2021/12/17 16:41:26;;;;;;;17.92;9.18;;;9.20;99.90;;;;;;4953527;28;20085;-70
2021/12/17 16:44:00;;;;;;;17.02;8.85;;;9.30;99.90;;;;;;4922990;28;134270;-69
2021/12/17 16:49:12;;;;;;;14.30;7.70;;;9.20;99.90;;;;;;4922949;28;60886;-69
2021/12/17 16:51:39;;;;;;;14.98;8.02;;;9.30;99.90;;;;;;4949704;28;20414;-69
2021/12/17 16:54:05;;;;;;;16.17;8.65;;;9.20;99.90;;;;;;4940885;28;149250;-68
2021/12/17 16:56:31;;;;;;;17.50;8.68;;;9.20;99.90;;;;;;4984185;28;20082;-70
2021/12/17 16:58:58;;;;;;;16.30;8.10;;;9.20;99.90;;;;;;4984995;28;254030;-70
2021/12/17 17:01:28;;;;;;;14.27;7.97;;;9.20;99.90;;;;;;5008861;28;20058;-69
2021/12/17 17:03:55;;;;;;;14.35;7.65;;;9.20;99.90;;;;;;4968740;28;252130;-69
2021/12/17 17:06:21;;;;;;;18.60;8.65;;;9.20;99.90;;;;;;5005348;28;20054;-68
2021/12/17 17:08:49;;;;;;;16.40;8.37;;;9.20;99.90;;;;;;4985701;28;254234;-69
2021/12/17 17:11:16;;;;;;;15.20;8.20;;;9.20;99.90;;;;;;5014034;28;20076;-69
2021/12/17 17:13:43;;;;;;;15.07;7.50;;;9.20;99.90;;;;;;4986623;28;256018;-67
2021/12/17 17:16:09;;;;;;;16.75;8.57;;;9.20;99.90;;;;;;4999232;28;20793;-70
2021/12/17 17:18:38;;;;;;;16.90;9.27;;;9.20;99.90;;;;;;5004316;28;20056;-69
2021/12/17 17:21:06;;;;;;;14.80;7.93;;;9.10;99.90;;;;;;5001133;28;205809;-69
2021/12/17 17:23:33;;;;;;;13.57;7.55;;;9.10;99.90;;;;;;5002243;28;20053;-69
2021/12/17 17:26:00;;;;;;;11.80;5.75;;;9.10;99.90;;;;;;4996547;28;260089;-70
2021/12/17 17:28:26;;;;;;;11.65;5.57;;;9.10;99.90;;;;;;5002745;28;20034;-69
2021/12/17 17:30:54;;;;;;;12.68;5.97;;;9.00;99.90;;;;;;4996829;28;265488;-69
2021/12/17 17:33:21;;;;;;;12.80;6.03;;;9.00;99.90;;;;;;5001688;28;20053;-69
2021/12/17 17:35:48;;;;;;;13.15;5.93;;;9.00;99.90;;;;;;4995056;28;256500;-70
2021/12/17 17:38:14;;;;;;;13.40;6.45;;;9.00;99.90;;;;;;4995358;28;20053;-70
2021/12/17 17:40:40;;;;;;;14.20;6.45;;;9.00;99.90;;;;;;4995840;28;255348;-70
2021/12/17 17:43:08;;;;;;;14.10;6.28;;;9.00;99.90;;;;;;5001274;28;20053;-70
2021/12/17 17:45:36;;;;;;;13.73;6.47;;;9.00;99.90;;;;;;4990661;28;126057;-69
2021/12/17 17:48:08;;;;;;;16.27;6.30;;;9.00;99.90;;;;;;5008961;28;20034;-69